sensor_id;sensor_type;location;lat;lon;timestamp;temperature;humidity
84330;SHT31;74510;42.676;23.432;2024-01-25T00:00:37;1.81;77.57
84330;SHT31;74510;42.676;23.432;2024-01-25T00:03:04;1.97;76.49
84330;SHT31;74510;42.676;23.432;2024-01-25T00:05:29;1.95;76.44
84330;SHT31;74510;42.676;23.432;2024-01-25T00:07:54;2.02;77.06
84330;SHT31;74510;42.676;23.432;2024-01-25T00:10:21;2.08;76.59
84330;SHT31;74510;42.676;23.432;2024-01-25T00:12:46;2.26;76.69
84330;SHT31;74510;42.676;23.432;2024-01-25T00:15:14;2.30;76.37
84330;SHT31;74510;42.676;23.432;2024-01-25T00:17:40;2.29;76.45
84330;SHT31;74510;42.676;23.432;2024-01-25T00:20:08;2.19;77.13
84330;SHT31;74510;42.676;23.432;2024-01-25T00:22:34;2.15;77.24
84330;SHT31;74510;42.676;23.432;2024-01-25T00:24:59;2.15;77.95
84330;SHT31;74510;42.676;23.432;2024-01-25T00:27:25;2.02;78.63
84330;SHT31;74510;42.676;23.432;2024-01-25T00:29:50;1.95;79.09
84330;SHT31;74510;42.676;23.432;2024-01-25T00:32:16;1.88;79.00
84330;SHT31;74510;42.676;23.432;2024-01-25T00:34:41;2.15;78.72
84330;SHT31;74510;42.676;23.432;2024-01-25T00:37:07;2.29;76.68
84330;SHT31;74510;42.676;23.432;2024-01-25T00:39:34;2.21;75.01
84330;SHT31;74510;42.676;23.432;2024-01-25T00:42:03;2.21;75.68
84330;SHT31;74510;42.676;23.432;2024-01-25T00:44:30;2.28;75.81
84330;SHT31;74510;42.676;23.432;2024-01-25T00:46:56;2.21;74.39
84330;SHT31;74510;42.676;23.432;2024-01-25T00:49:22;2.39;75.55
84330;SHT31;74510;42.676;23.432;2024-01-25T00:51:47;2.22;75.54
84330;SHT31;74510;42.676;23.432;2024-01-25T00:54:16;2.11;76.60
84330;SHT31;74510;42.676;23.432;2024-01-25T00:56:42;2.07;76.84
84330;SHT31;74510;42.676;23.432;2024-01-25T00:59:08;1.97;77.00
84330;SHT31;74510;42.676;23.432;2024-01-25T01:01:33;1.95;77.32
84330;SHT31;74510;42.676;23.432;2024-01-25T01:03:59;2.15;77.44
84330;SHT31;74510;42.676;23.432;2024-01-25T01:06:25;2.01;78.22
84330;SHT31;74510;42.676;23.432;2024-01-25T01:08:51;1.90;79.28
84330;SHT31;74510;42.676;23.432;2024-01-25T01:11:17;1.81;79.93
84330;SHT31;74510;42.676;23.432;2024-01-25T01:13:42;1.77;80.34
84330;SHT31;74510;42.676;23.432;2024-01-25T01:16:08;1.68;81.12
84330;SHT31;74510;42.676;23.432;2024-01-25T01:18:34;1.56;81.96
84330;SHT31;74510;42.676;23.432;2024-01-25T01:20:59;1.54;82.32
84330;SHT31;74510;42.676;23.432;2024-01-25T01:23:25;1.52;83.07
84330;SHT31;74510;42.676;23.432;2024-01-25T01:25:50;1.50;82.68
84330;SHT31;74510;42.676;23.432;2024-01-25T01:28:16;1.60;82.40
84330;SHT31;74510;42.676;23.432;2024-01-25T01:30:41;1.46;83.18
84330;SHT31;74510;42.676;23.432;2024-01-25T01:33:10;1.50;83.67
84330;SHT31;74510;42.676;23.432;2024-01-25T01:35:35;1.47;83.52
84330;SHT31;74510;42.676;23.432;2024-01-25T01:38:01;1.42;83.67
84330;SHT31;74510;42.676;23.432;2024-01-25T01:40:26;1.52;83.80
84330;SHT31;74510;42.676;23.432;2024-01-25T01:42:51;1.44;83.67
84330;SHT31;74510;42.676;23.432;2024-01-25T01:45:17;1.57;83.05
84330;SHT31;74510;42.676;23.432;2024-01-25T01:47:42;1.44;83.16
84330;SHT31;74510;42.676;23.432;2024-01-25T01:50:09;1.42;83.26
84330;SHT31;74510;42.676;23.432;2024-01-25T01:52:35;1.46;83.55
84330;SHT31;74510;42.676;23.432;2024-01-25T01:55:00;1.32;83.71
84330;SHT31;74510;42.676;23.432;2024-01-25T01:57:26;1.26;83.92
84330;SHT31;74510;42.676;23.432;2024-01-25T01:59:52;1.29;83.62
84330;SHT31;74510;42.676;23.432;2024-01-25T02:02:17;1.36;82.46
84330;SHT31;74510;42.676;23.432;2024-01-25T02:04:43;1.44;81.42
84330;SHT31;74510;42.676;23.432;2024-01-25T02:07:09;1.52;81.19
84330;SHT31;74510;42.676;23.432;2024-01-25T02:09:35;1.63;79.81
84330;SHT31;74510;42.676;23.432;2024-01-25T02:12:03;1.57;80.42
84330;SHT31;74510;42.676;23.432;2024-01-25T02:14:30;1.54;80.25
84330;SHT31;74510;42.676;23.432;2024-01-25T02:16:56;1.56;79.93
84330;SHT31;74510;42.676;23.432;2024-01-25T02:19:27;1.56;79.82
84330;SHT31;74510;42.676;23.432;2024-01-25T02:21:53;1.80;79.22
84330;SHT31;74510;42.676;23.432;2024-01-25T02:24:19;1.71;79.83
84330;SHT31;74510;42.676;23.432;2024-01-25T02:26:44;1.68;81.24
84330;SHT31;74510;42.676;23.432;2024-01-25T02:29:10;1.63;79.82
84330;SHT31;74510;42.676;23.432;2024-01-25T02:31:35;1.59;80.47
84330;SHT31;74510;42.676;23.432;2024-01-25T02:34:01;1.61;81.35
84330;SHT31;74510;42.676;23.432;2024-01-25T02:36:26;1.57;81.01
84330;SHT31;74510;42.676;23.432;2024-01-25T02:38:51;1.93;80.39
84330;SHT31;74510;42.676;23.432;2024-01-25T02:41:17;1.68;80.66
84330;SHT31;74510;42.676;23.432;2024-01-25T02:43:42;1.64;81.60
84330;SHT31;74510;42.676;23.432;2024-01-25T02:46:08;1.64;82.11
84330;SHT31;74510;42.676;23.432;2024-01-25T02:48:34;1.57;82.51
84330;SHT31;74510;42.676;23.432;2024-01-25T02:51:00;1.52;82.81
84330;SHT31;74510;42.676;23.432;2024-01-25T02:53:25;1.52;83.12
84330;SHT31;74510;42.676;23.432;2024-01-25T02:55:50;1.53;82.81
84330;SHT31;74510;42.676;23.432;2024-01-25T02:58:16;1.60;82.69
84330;SHT31;74510;42.676;23.432;2024-01-25T03:00:41;1.56;81.04
84330;SHT31;74510;42.676;23.432;2024-01-25T03:03:07;1.47;82.37
84330;SHT31;74510;42.676;23.432;2024-01-25T03:05:32;1.54;83.22
84330;SHT31;74510;42.676;23.432;2024-01-25T03:08:00;1.49;83.26
84330;SHT31;74510;42.676;23.432;2024-01-25T03:10:25;1.49;82.67
84330;SHT31;74510;42.676;23.432;2024-01-25T03:12:50;1.52;82.31
84330;SHT31;74510;42.676;23.432;2024-01-25T03:15:16;1.63;82.17
84330;SHT31;74510;42.676;23.432;2024-01-25T03:17:41;1.54;81.53
84330;SHT31;74510;42.676;23.432;2024-01-25T03:20:07;1.50;82.20
84330;SHT31;74510;42.676;23.432;2024-01-25T03:22:32;1.53;81.94
84330;SHT31;74510;42.676;23.432;2024-01-25T03:24:58;1.70;81.55
84330;SHT31;74510;42.676;23.432;2024-01-25T03:27:23;1.54;82.49
84330;SHT31;74510;42.676;23.432;2024-01-25T03:29:49;1.66;82.94
84330;SHT31;74510;42.676;23.432;2024-01-25T03:32:23;1.53;83.18
84330;SHT31;74510;42.676;23.432;2024-01-25T03:34:49;1.68;82.94
84330;SHT31;74510;42.676;23.432;2024-01-25T03:37:14;1.73;82.79
84330;SHT31;74510;42.676;23.432;2024-01-25T03:39:39;1.64;82.84
84330;SHT31;74510;42.676;23.432;2024-01-25T03:42:05;1.71;82.56
84330;SHT31;74510;42.676;23.432;2024-01-25T03:44:30;1.73;82.44
84330;SHT31;74510;42.676;23.432;2024-01-25T03:46:56;1.68;82.53
84330;SHT31;74510;42.676;23.432;2024-01-25T03:49:21;1.66;82.75
84330;SHT31;74510;42.676;23.432;2024-01-25T03:51:48;1.57;83.22
84330;SHT31;74510;42.676;23.432;2024-01-25T03:54:13;1.57;83.32
84330;SHT31;74510;42.676;23.432;2024-01-25T03:56:39;1.68;83.94
84330;SHT31;74510;42.676;23.432;2024-01-25T03:59:04;1.80;83.36
84330;SHT31;74510;42.676;23.432;2024-01-25T04:01:41;2.02;83.23
84330;SHT31;74510;42.676;23.432;2024-01-25T04:04:06;2.52;82.29
84330;SHT31;74510;42.676;23.432;2024-01-25T04:06:34;2.64;80.70
84330;SHT31;74510;42.676;23.432;2024-01-25T04:08:59;2.70;80.23
84330;SHT31;74510;42.676;23.432;2024-01-25T04:11:25;2.80;79.93
84330;SHT31;74510;42.676;23.432;2024-01-25T04:13:50;3.00;79.69
84330;SHT31;74510;42.676;23.432;2024-01-25T04:16:16;3.32;78.56
84330;SHT31;74510;42.676;23.432;2024-01-25T04:18:41;3.49;77.93
84330;SHT31;74510;42.676;23.432;2024-01-25T04:21:06;3.77;76.68
84330;SHT31;74510;42.676;23.432;2024-01-25T04:23:32;4.00;75.45
84330;SHT31;74510;42.676;23.432;2024-01-25T04:25:57;4.01;75.36
84330;SHT31;74510;42.676;23.432;2024-01-25T04:28:23;4.07;75.18
84330;SHT31;74510;42.676;23.432;2024-01-25T04:30:48;3.93;75.82
84330;SHT31;74510;42.676;23.432;2024-01-25T04:33:14;3.82;76.34
84330;SHT31;74510;42.676;23.432;2024-01-25T04:35:39;3.67;76.71
84330;SHT31;74510;42.676;23.432;2024-01-25T04:38:04;3.49;77.91
84330;SHT31;74510;42.676;23.432;2024-01-25T04:40:30;3.43;78.26
84330;SHT31;74510;42.676;23.432;2024-01-25T04:42:55;3.51;77.28
84330;SHT31;74510;42.676;23.432;2024-01-25T04:45:21;3.56;76.98
84330;SHT31;74510;42.676;23.432;2024-01-25T04:47:46;3.66;76.43
84330;SHT31;74510;42.676;23.432;2024-01-25T04:50:11;3.75;76.43
84330;SHT31;74510;42.676;23.432;2024-01-25T04:52:37;3.75;75.86
84330;SHT31;74510;42.676;23.432;2024-01-25T04:55:02;3.79;75.90
84330;SHT31;74510;42.676;23.432;2024-01-25T04:57:28;3.84;75.48
84330;SHT31;74510;42.676;23.432;2024-01-25T04:59:53;3.89;75.12
84330;SHT31;74510;42.676;23.432;2024-01-25T05:02:18;3.89;74.81
84330;SHT31;74510;42.676;23.432;2024-01-25T05:04:44;3.91;74.56
84330;SHT31;74510;42.676;23.432;2024-01-25T05:07:09;4.01;74.10
84330;SHT31;74510;42.676;23.432;2024-01-25T05:09:35;3.93;74.63
84330;SHT31;74510;42.676;23.432;2024-01-25T05:12:00;3.98;74.25
84330;SHT31;74510;42.676;23.432;2024-01-25T05:14:27;4.10;73.58
84330;SHT31;74510;42.676;23.432;2024-01-25T05:16:52;4.20;72.87
84330;SHT31;74510;42.676;23.432;2024-01-25T05:19:18;4.34;72.11
84330;SHT31;74510;42.676;23.432;2024-01-25T05:21:43;4.40;71.92
84330;SHT31;74510;42.676;23.432;2024-01-25T05:24:09;4.51;71.32
84330;SHT31;74510;42.676;23.432;2024-01-25T05:26:35;4.75;70.41
84330;SHT31;74510;42.676;23.432;2024-01-25T05:29:00;4.89;69.62
84330;SHT31;74510;42.676;23.432;2024-01-25T05:31:26;4.93;69.35
84330;SHT31;74510;42.676;23.432;2024-01-25T05:33:52;5.07;68.48
84330;SHT31;74510;42.676;23.432;2024-01-25T05:36:17;5.09;68.22
84330;SHT31;74510;42.676;23.432;2024-01-25T05:38:42;5.07;68.33
84330;SHT31;74510;42.676;23.432;2024-01-25T05:41:08;5.10;68.22
84330;SHT31;74510;42.676;23.432;2024-01-25T05:43:33;5.19;67.96
84330;SHT31;74510;42.676;23.432;2024-01-25T05:45:59;5.30;67.39
84330;SHT31;74510;42.676;23.432;2024-01-25T05:48:24;5.31;67.28
84330;SHT31;74510;42.676;23.432;2024-01-25T05:50:49;5.30;67.29
84330;SHT31;74510;42.676;23.432;2024-01-25T05:53:15;5.32;67.22
84330;SHT31;74510;42.676;23.432;2024-01-25T05:55:44;5.40;66.73
84330;SHT31;74510;42.676;23.432;2024-01-25T05:58:09;5.66;66.06
84330;SHT31;74510;42.676;23.432;2024-01-25T06:00:35;5.73;65.72
84330;SHT31;74510;42.676;23.432;2024-01-25T06:03:00;5.73;65.36
84330;SHT31;74510;42.676;23.432;2024-01-25T06:05:25;5.58;66.27
84330;SHT31;74510;42.676;23.432;2024-01-25T06:07:51;5.47;67.01
84330;SHT31;74510;42.676;23.432;2024-01-25T06:10:16;5.55;66.67
84330;SHT31;74510;42.676;23.432;2024-01-25T06:12:42;5.51;66.90
84330;SHT31;74510;42.676;23.432;2024-01-25T06:15:08;5.56;67.18
84330;SHT31;74510;42.676;23.432;2024-01-25T06:17:33;5.51;67.42
84330;SHT31;74510;42.676;23.432;2024-01-25T06:19:59;5.48;67.74
84330;SHT31;74510;42.676;23.432;2024-01-25T06:22:24;5.47;67.63
84330;SHT31;74510;42.676;23.432;2024-01-25T06:24:50;5.49;67.63
84330;SHT31;74510;42.676;23.432;2024-01-25T06:27:15;5.49;67.38
84330;SHT31;74510;42.676;23.432;2024-01-25T06:29:41;5.44;67.94
84330;SHT31;74510;42.676;23.432;2024-01-25T06:32:06;5.45;67.75
84330;SHT31;74510;42.676;23.432;2024-01-25T06:34:32;5.47;67.61
84330;SHT31;74510;42.676;23.432;2024-01-25T06:36:57;5.52;67.51
84330;SHT31;74510;42.676;23.432;2024-01-25T06:39:22;5.51;67.38
84330;SHT31;74510;42.676;23.432;2024-01-25T06:41:48;5.59;66.78
84330;SHT31;74510;42.676;23.432;2024-01-25T06:44:13;5.65;66.86
84330;SHT31;74510;42.676;23.432;2024-01-25T06:46:39;5.65;66.72
84330;SHT31;74510;42.676;23.432;2024-01-25T06:49:04;5.52;67.36
84330;SHT31;74510;42.676;23.432;2024-01-25T06:51:29;5.55;67.58
84330;SHT31;74510;42.676;23.432;2024-01-25T06:53:55;5.76;66.79
84330;SHT31;74510;42.676;23.432;2024-01-25T06:56:20;5.72;66.78
84330;SHT31;74510;42.676;23.432;2024-01-25T06:58:46;5.76;66.49
84330;SHT31;74510;42.676;23.432;2024-01-25T07:01:11;5.86;66.22
84330;SHT31;74510;42.676;23.432;2024-01-25T07:03:37;5.80;66.62
84330;SHT31;74510;42.676;23.432;2024-01-25T07:06:03;5.66;66.73
84330;SHT31;74510;42.676;23.432;2024-01-25T07:08:29;5.69;66.63
84330;SHT31;74510;42.676;23.432;2024-01-25T07:10:54;5.66;66.85
84330;SHT31;74510;42.676;23.432;2024-01-25T07:13:21;5.73;66.88
84330;SHT31;74510;42.676;23.432;2024-01-25T07:15:47;5.69;66.99
84330;SHT31;74510;42.676;23.432;2024-01-25T07:18:13;5.72;66.88
84330;SHT31;74510;42.676;23.432;2024-01-25T07:20:38;5.78;66.54
84330;SHT31;74510;42.676;23.432;2024-01-25T07:23:03;5.80;66.67
84330;SHT31;74510;42.676;23.432;2024-01-25T07:25:29;6.07;65.44
84330;SHT31;74510;42.676;23.432;2024-01-25T07:27:54;6.06;65.58
84330;SHT31;74510;42.676;23.432;2024-01-25T07:30:20;6.14;65.15
84330;SHT31;74510;42.676;23.432;2024-01-25T07:32:45;6.17;65.14
84330;SHT31;74510;42.676;23.432;2024-01-25T07:35:12;6.16;65.05
84330;SHT31;74510;42.676;23.432;2024-01-25T07:37:39;6.23;64.78
84330;SHT31;74510;42.676;23.432;2024-01-25T07:40:05;6.26;64.64
84330;SHT31;74510;42.676;23.432;2024-01-25T07:42:32;6.30;64.74
84330;SHT31;74510;42.676;23.432;2024-01-25T07:44:57;6.33;64.45
84330;SHT31;74510;42.676;23.432;2024-01-25T07:47:23;6.27;64.53
84330;SHT31;74510;42.676;23.432;2024-01-25T07:49:48;6.40;64.02
84330;SHT31;74510;42.676;23.432;2024-01-25T07:52:14;6.40;64.04
84330;SHT31;74510;42.676;23.432;2024-01-25T07:54:39;6.41;64.14
84330;SHT31;74510;42.676;23.432;2024-01-25T07:57:05;6.42;64.20
84330;SHT31;74510;42.676;23.432;2024-01-25T07:59:30;6.47;63.46
84330;SHT31;74510;42.676;23.432;2024-01-25T08:01:56;6.57;63.24
84330;SHT31;74510;42.676;23.432;2024-01-25T08:04:21;6.64;63.39
84330;SHT31;74510;42.676;23.432;2024-01-25T08:06:47;6.71;63.25
84330;SHT31;74510;42.676;23.432;2024-01-25T08:09:12;6.74;63.26
84330;SHT31;74510;42.676;23.432;2024-01-25T08:11:38;6.61;63.73
84330;SHT31;74510;42.676;23.432;2024-01-25T08:14:03;6.67;63.26
84330;SHT31;74510;42.676;23.432;2024-01-25T08:16:29;6.78;62.23
84330;SHT31;74510;42.676;23.432;2024-01-25T08:18:54;6.82;61.76
84330;SHT31;74510;42.676;23.432;2024-01-25T08:21:20;6.84;62.44
84330;SHT31;74510;42.676;23.432;2024-01-25T08:23:45;6.68;63.11
84330;SHT31;74510;42.676;23.432;2024-01-25T08:26:10;6.69;62.70
84330;SHT31;74510;42.676;23.432;2024-01-25T08:28:40;6.78;62.10
84330;SHT31;74510;42.676;23.432;2024-01-25T08:31:06;6.75;62.60
84330;SHT31;74510;42.676;23.432;2024-01-25T08:33:32;6.78;62.92
84330;SHT31;74510;42.676;23.432;2024-01-25T08:36:02;6.72;62.13
84330;SHT31;74510;42.676;23.432;2024-01-25T08:38:28;6.74;62.11
84330;SHT31;74510;42.676;23.432;2024-01-25T08:40:53;6.85;61.77
84330;SHT31;74510;42.676;23.432;2024-01-25T08:43:19;6.81;61.51
84330;SHT31;74510;42.676;23.432;2024-01-25T08:45:44;6.85;61.50
84330;SHT31;74510;42.676;23.432;2024-01-25T08:48:10;6.82;61.21
84330;SHT31;74510;42.676;23.432;2024-01-25T08:50:36;6.85;61.26
84330;SHT31;74510;42.676;23.432;2024-01-25T08:53:01;6.85;61.63
84330;SHT31;74510;42.676;23.432;2024-01-25T08:55:27;6.85;60.84
84330;SHT31;74510;42.676;23.432;2024-01-25T08:57:52;6.88;60.40
84330;SHT31;74510;42.676;23.432;2024-01-25T09:00:18;6.97;60.03
84330;SHT31;74510;42.676;23.432;2024-01-25T09:02:43;7.05;59.42
84330;SHT31;74510;42.676;23.432;2024-01-25T09:05:10;7.10;59.24
84330;SHT31;74510;42.676;23.432;2024-01-25T09:07:35;7.09;59.78
84330;SHT31;74510;42.676;23.432;2024-01-25T09:10:01;7.13;59.58
84330;SHT31;74510;42.676;23.432;2024-01-25T09:12:27;7.06;59.76
84330;SHT31;74510;42.676;23.432;2024-01-25T09:14:52;7.02;60.05
84330;SHT31;74510;42.676;23.432;2024-01-25T09:17:17;7.20;59.98
84330;SHT31;74510;42.676;23.432;2024-01-25T09:19:50;7.34;59.75
84330;SHT31;74510;42.676;23.432;2024-01-25T09:22:19;7.38;59.93
84330;SHT31;74510;42.676;23.432;2024-01-25T09:24:48;7.37;59.74
84330;SHT31;74510;42.676;23.432;2024-01-25T09:27:14;7.42;59.78
84330;SHT31;74510;42.676;23.432;2024-01-25T09:29:40;7.36;59.99
84330;SHT31;74510;42.676;23.432;2024-01-25T09:32:07;7.40;60.55
84330;SHT31;74510;42.676;23.432;2024-01-25T09:34:33;7.30;60.98
84330;SHT31;74510;42.676;23.432;2024-01-25T09:36:59;7.27;60.76
84330;SHT31;74510;42.676;23.432;2024-01-25T09:39:24;7.23;61.09
84330;SHT31;74510;42.676;23.432;2024-01-25T09:41:49;7.31;60.91
84330;SHT31;74510;42.676;23.432;2024-01-25T09:44:15;7.48;59.99
84330;SHT31;74510;42.676;23.432;2024-01-25T09:46:43;7.53;59.96
84330;SHT31;74510;42.676;23.432;2024-01-25T09:49:09;7.55;59.76
84330;SHT31;74510;42.676;23.432;2024-01-25T09:51:37;7.54;59.84
84330;SHT31;74510;42.676;23.432;2024-01-25T09:54:04;7.50;59.83
84330;SHT31;74510;42.676;23.432;2024-01-25T09:56:32;7.53;59.10
84330;SHT31;74510;42.676;23.432;2024-01-25T09:58:58;7.47;59.87
84330;SHT31;74510;42.676;23.432;2024-01-25T10:01:23;7.46;60.16
84330;SHT31;74510;42.676;23.432;2024-01-25T10:03:49;7.38;60.25
84330;SHT31;74510;42.676;23.432;2024-01-25T10:06:15;7.40;59.83
84330;SHT31;74510;42.676;23.432;2024-01-25T10:08:41;7.34;60.45
84330;SHT31;74510;42.676;23.432;2024-01-25T10:11:07;7.46;60.23
84330;SHT31;74510;42.676;23.432;2024-01-25T10:13:48;7.43;60.40
84330;SHT31;74510;42.676;23.432;2024-01-25T10:16:19;7.42;60.53
84330;SHT31;74510;42.676;23.432;2024-01-25T10:18:48;7.43;60.46
84330;SHT31;74510;42.676;23.432;2024-01-25T10:21:14;7.47;60.87
84330;SHT31;74510;42.676;23.432;2024-01-25T10:23:40;7.47;60.02
84330;SHT31;74510;42.676;23.432;2024-01-25T10:26:08;7.50;60.18
84330;SHT31;74510;42.676;23.432;2024-01-25T10:28:33;7.55;60.48
84330;SHT31;74510;42.676;23.432;2024-01-25T10:31:03;7.67;59.95
84330;SHT31;74510;42.676;23.432;2024-01-25T10:33:33;7.68;60.60
84330;SHT31;74510;42.676;23.432;2024-01-25T10:36:00;7.71;60.02
84330;SHT31;74510;42.676;23.432;2024-01-25T10:38:33;7.70;60.12
84330;SHT31;74510;42.676;23.432;2024-01-25T10:41:01;7.79;59.99
84330;SHT31;74510;42.676;23.432;2024-01-25T10:43:28;7.85;60.78
84330;SHT31;74510;42.676;23.432;2024-01-25T10:45:53;7.82;59.94
84330;SHT31;74510;42.676;23.432;2024-01-25T10:48:22;7.81;60.08
84330;SHT31;74510;42.676;23.432;2024-01-25T10:50:48;7.74;60.33
84330;SHT31;74510;42.676;23.432;2024-01-25T10:53:15;7.71;60.11
84330;SHT31;74510;42.676;23.432;2024-01-25T10:55:41;7.67;60.43
84330;SHT31;74510;42.676;23.432;2024-01-25T10:58:07;7.70;59.98
84330;SHT31;74510;42.676;23.432;2024-01-25T11:00:34;7.75;59.78
84330;SHT31;74510;42.676;23.432;2024-01-25T11:03:00;7.79;59.52
84330;SHT31;74510;42.676;23.432;2024-01-25T11:05:26;7.96;59.68
84330;SHT31;74510;42.676;23.432;2024-01-25T11:07:52;8.20;59.24
84330;SHT31;74510;42.676;23.432;2024-01-25T11:10:19;8.41;59.16
84330;SHT31;74510;42.676;23.432;2024-01-25T11:12:59;8.54;59.55
84330;SHT31;74510;42.676;23.432;2024-01-25T11:17:58;8.28;58.42
84330;SHT31;74510;42.676;23.432;2024-01-25T11:20:25;8.20;58.30
84330;SHT31;74510;42.676;23.432;2024-01-25T11:23:04;8.09;59.52
84330;SHT31;74510;42.676;23.432;2024-01-25T11:25:34;8.09;58.12
84330;SHT31;74510;42.676;23.432;2024-01-25T11:28:01;8.02;58.55
84330;SHT31;74510;42.676;23.432;2024-01-25T11:30:28;8.02;58.37
84330;SHT31;74510;42.676;23.432;2024-01-25T11:32:54;8.01;58.69
84330;SHT31;74510;42.676;23.432;2024-01-25T11:35:21;7.86;58.70
84330;SHT31;74510;42.676;23.432;2024-01-25T11:37:48;7.91;58.37
84330;SHT31;74510;42.676;23.432;2024-01-25T11:40:15;7.81;58.86
84330;SHT31;74510;42.676;23.432;2024-01-25T11:42:48;7.78;58.85
84330;SHT31;74510;42.676;23.432;2024-01-25T11:45:14;7.75;58.99
84330;SHT31;74510;42.676;23.432;2024-01-25T11:47:41;7.74;57.75
84330;SHT31;74510;42.676;23.432;2024-01-25T11:50:07;7.74;58.56
84330;SHT31;74510;42.676;23.432;2024-01-25T11:52:34;7.68;58.52
84330;SHT31;74510;42.676;23.432;2024-01-25T11:55:06;7.70;58.92
84330;SHT31;74510;42.676;23.432;2024-01-25T11:57:35;7.68;57.66
84330;SHT31;74510;42.676;23.432;2024-01-25T12:00:02;7.71;57.64
84330;SHT31;74510;42.676;23.432;2024-01-25T12:02:29;7.75;58.50
84330;SHT31;74510;42.676;23.432;2024-01-25T12:04:57;7.81;57.31
84330;SHT31;74510;42.676;23.432;2024-01-25T12:07:22;7.72;57.92
84330;SHT31;74510;42.676;23.432;2024-01-25T12:10:17;7.77;57.58
84330;SHT31;74510;42.676;23.432;2024-01-25T12:12:43;7.78;58.16
84330;SHT31;74510;42.676;23.432;2024-01-25T12:15:08;7.79;57.21
84330;SHT31;74510;42.676;23.432;2024-01-25T12:17:34;7.75;57.12
84330;SHT31;74510;42.676;23.432;2024-01-25T12:20:04;7.77;57.95
84330;SHT31;74510;42.676;23.432;2024-01-25T12:22:36;7.74;57.37
84330;SHT31;74510;42.676;23.432;2024-01-25T12:25:02;7.75;57.37
84330;SHT31;74510;42.676;23.432;2024-01-25T12:27:28;7.78;56.79
84330;SHT31;74510;42.676;23.432;2024-01-25T12:29:56;7.79;57.75
84330;SHT31;74510;42.676;23.432;2024-01-25T12:32:21;7.92;57.15
84330;SHT31;74510;42.676;23.432;2024-01-25T12:34:58;8.09;55.96
84330;SHT31;74510;42.676;23.432;2024-01-25T12:37:25;8.20;55.28
84330;SHT31;74510;42.676;23.432;2024-01-25T12:39:51;8.54;54.53
84330;SHT31;74510;42.676;23.432;2024-01-25T12:42:17;8.80;54.14
84330;SHT31;74510;42.676;23.432;2024-01-25T12:44:43;8.89;53.14
84330;SHT31;74510;42.676;23.432;2024-01-25T12:47:08;9.01;53.82
84330;SHT31;74510;42.676;23.432;2024-01-25T12:49:34;9.11;53.06
84330;SHT31;74510;42.676;23.432;2024-01-25T12:51:59;9.18;53.41
84330;SHT31;74510;42.676;23.432;2024-01-25T12:54:26;8.99;53.39
84330;SHT31;74510;42.676;23.432;2024-01-25T12:56:51;8.93;53.76
84330;SHT31;74510;42.676;23.432;2024-01-25T12:59:17;8.89;53.47
84330;SHT31;74510;42.676;23.432;2024-01-25T13:01:42;8.81;53.59
84330;SHT31;74510;42.676;23.432;2024-01-25T13:04:08;8.74;53.63
84330;SHT31;74510;42.676;23.432;2024-01-25T13:06:33;8.71;53.68
84330;SHT31;74510;42.676;23.432;2024-01-25T13:08:58;8.85;53.86
84330;SHT31;74510;42.676;23.432;2024-01-25T13:11:24;8.92;52.51
84330;SHT31;74510;42.676;23.432;2024-01-25T13:13:49;8.91;52.90
84330;SHT31;74510;42.676;23.432;2024-01-25T13:16:16;9.01;53.01
84330;SHT31;74510;42.676;23.432;2024-01-25T13:18:42;9.01;53.04
84330;SHT31;74510;42.676;23.432;2024-01-25T13:21:07;8.99;51.65
84330;SHT31;74510;42.676;23.432;2024-01-25T13:23:33;8.95;52.64
84330;SHT31;74510;42.676;23.432;2024-01-25T13:25:58;8.92;52.75
84330;SHT31;74510;42.676;23.432;2024-01-25T13:28:23;8.91;54.00
84330;SHT31;74510;42.676;23.432;2024-01-25T13:30:49;8.85;52.75
84330;SHT31;74510;42.676;23.432;2024-01-25T13:33:14;8.84;53.33
84330;SHT31;74510;42.676;23.432;2024-01-25T13:35:40;8.72;53.72
84330;SHT31;74510;42.676;23.432;2024-01-25T13:38:05;8.77;53.53
84330;SHT31;74510;42.676;23.432;2024-01-25T13:40:30;8.68;53.53
84330;SHT31;74510;42.676;23.432;2024-01-25T13:42:56;8.70;53.31
84330;SHT31;74510;42.676;23.432;2024-01-25T13:45:22;8.71;52.88
84330;SHT31;74510;42.676;23.432;2024-01-25T13:47:47;8.67;53.40
84330;SHT31;74510;42.676;23.432;2024-01-25T13:50:12;8.61;53.73
84330;SHT31;74510;42.676;23.432;2024-01-25T13:52:38;8.59;53.50
84330;SHT31;74510;42.676;23.432;2024-01-25T13:55:04;8.56;53.91
84330;SHT31;74510;42.676;23.432;2024-01-25T13:57:29;8.63;53.30
84330;SHT31;74510;42.676;23.432;2024-01-25T13:59:54;8.67;53.80
84330;SHT31;74510;42.676;23.432;2024-01-25T14:02:20;8.65;54.06
84330;SHT31;74510;42.676;23.432;2024-01-25T14:04:45;8.63;54.57
84330;SHT31;74510;42.676;23.432;2024-01-25T14:07:13;8.65;53.64
84330;SHT31;74510;42.676;23.432;2024-01-25T14:09:38;8.57;54.66
84330;SHT31;74510;42.676;23.432;2024-01-25T14:12:06;8.64;54.01
84330;SHT31;74510;42.676;23.432;2024-01-25T14:14:31;8.60;54.68
84330;SHT31;74510;42.676;23.432;2024-01-25T14:16:57;8.56;54.74
84330;SHT31;74510;42.676;23.432;2024-01-25T14:19:22;8.44;55.05
84330;SHT31;74510;42.676;23.432;2024-01-25T14:21:48;8.49;54.82
84330;SHT31;74510;42.676;23.432;2024-01-25T14:24:14;8.41;54.77
84330;SHT31;74510;42.676;23.432;2024-01-25T14:26:39;8.34;55.08
84330;SHT31;74510;42.676;23.432;2024-01-25T14:29:05;8.29;54.21
84330;SHT31;74510;42.676;23.432;2024-01-25T14:31:30;8.19;55.81
84330;SHT31;74510;42.676;23.432;2024-01-25T14:33:56;8.16;55.41
84330;SHT31;74510;42.676;23.432;2024-01-25T14:36:21;8.01;55.46
84330;SHT31;74510;42.676;23.432;2024-01-25T14:38:46;7.96;55.66
84330;SHT31;74510;42.676;23.432;2024-01-25T14:41:12;7.93;55.95
84330;SHT31;74510;42.676;23.432;2024-01-25T14:43:38;7.86;56.83
84330;SHT31;74510;42.676;23.432;2024-01-25T14:46:07;7.70;57.12
84330;SHT31;74510;42.676;23.432;2024-01-25T14:48:32;7.60;56.97
84330;SHT31;74510;42.676;23.432;2024-01-25T14:50:58;7.65;56.53
84330;SHT31;74510;42.676;23.432;2024-01-25T14:53:23;7.55;57.09
84330;SHT31;74510;42.676;23.432;2024-01-25T14:55:49;7.43;57.90
84330;SHT31;74510;42.676;23.432;2024-01-25T14:58:14;7.47;56.96
84330;SHT31;74510;42.676;23.432;2024-01-25T15:00:47;7.40;57.43
84330;SHT31;74510;42.676;23.432;2024-01-25T15:03:13;7.40;57.05
84330;SHT31;74510;42.676;23.432;2024-01-25T15:05:38;7.37;57.08
84330;SHT31;74510;42.676;23.432;2024-01-25T15:08:04;7.34;57.78
84330;SHT31;74510;42.676;23.432;2024-01-25T15:10:29;7.31;57.42
84330;SHT31;74510;42.676;23.432;2024-01-25T15:12:56;7.33;57.26
84330;SHT31;74510;42.676;23.432;2024-01-25T15:15:24;7.28;57.12
84330;SHT31;74510;42.676;23.432;2024-01-25T15:17:53;7.22;57.68
84330;SHT31;74510;42.676;23.432;2024-01-25T15:20:18;7.30;56.62
84330;SHT31;74510;42.676;23.432;2024-01-25T15:22:44;7.42;56.19
84330;SHT31;74510;42.676;23.432;2024-01-25T15:25:10;7.34;56.82